createdAt,value
2022-12-09T00:00:07.907Z,22.00
2022-12-09T00:02:35.369Z,22.60
2022-12-09T00:05:02.495Z,21.45
2022-12-09T00:07:29.629Z,21.63
2022-12-09T00:09:56.562Z,22.48
2022-12-09T00:12:23.698Z,21.88
2022-12-09T00:14:50.469Z,20.55
2022-12-09T00:17:20.070Z,20.92
2022-12-09T00:19:47.599Z,22.02
2022-12-09T00:22:33.267Z,20.30
2022-12-09T00:24:59.966Z,22.95
2022-12-09T00:27:26.756Z,21.67
2022-12-09T00:29:53.711Z,22.23
2022-12-09T00:32:20.891Z,22.42
2022-12-09T00:34:49.644Z,22.83
2022-12-09T00:37:16.392Z,20.88
2022-12-09T00:39:43.121Z,21.08
2022-12-09T00:42:10.785Z,21.52
2022-12-09T00:44:38.929Z,22.02
2022-12-09T00:47:05.744Z,22.10
2022-12-09T00:49:32.640Z,23.13
2022-12-09T00:51:59.891Z,20.45
2022-12-09T00:54:27.212Z,20.83
2022-12-09T00:56:53.923Z,20.60
2022-12-09T00:59:20.973Z,20.80
2022-12-09T01:01:48.803Z,21.17
2022-12-09T01:04:17.417Z,20.52
2022-12-09T01:06:44.275Z,20.95
2022-12-09T01:09:11.075Z,20.08
2022-12-09T01:11:38.130Z,20.70
2022-12-09T01:14:06.289Z,20.80
2022-12-09T01:16:35.060Z,21.02
2022-12-09T01:19:05.398Z,21.13
2022-12-09T01:21:33.248Z,22.23
2022-12-09T01:24:00.281Z,20.88
2022-12-09T01:26:27.530Z,20.23
2022-12-09T01:29:01.396Z,22.15
2022-12-09T01:31:28.209Z,21.17
2022-12-09T01:33:56.876Z,21.63
2022-12-09T01:36:33.274Z,22.15
2022-12-09T01:39:00.933Z,22.20
2022-12-09T01:41:28.745Z,21.00
2022-12-09T01:44:14.249Z,21.92
2022-12-09T01:46:41.940Z,22.13
2022-12-09T01:49:12.632Z,21.95
2022-12-09T01:51:39.678Z,21.65
2022-12-09T01:54:06.897Z,21.95
2022-12-09T01:56:36.005Z,21.25
2022-12-09T01:59:15.136Z,22.00
2022-12-09T02:01:44.425Z,21.70
2022-12-09T02:04:11.705Z,21.85
2022-12-09T02:06:39.267Z,20.92
2022-12-09T02:09:09.569Z,21.70
2022-12-09T02:11:40.108Z,21.33
2022-12-09T02:14:30.200Z,21.08
2022-12-09T02:17:24.357Z,20.33
2022-12-09T02:20:19.309Z,21.92
2022-12-09T02:22:53.320Z,22.80
2022-12-09T02:25:29.078Z,22.15
2022-12-09T02:28:14.490Z,22.80
2022-12-09T02:31:08.702Z,22.52
2022-12-09T02:34:11.051Z,23.50
2022-12-09T02:37:02.388Z,22.40
2022-12-09T02:39:43.921Z,23.35
2022-12-09T02:42:16.511Z,23.35
2022-12-09T02:44:47.681Z,23.92
2022-12-09T02:47:18.425Z,23.98
2022-12-09T02:49:48.661Z,24.38
2022-12-09T02:52:18.413Z,25.08
2022-12-09T02:54:46.729Z,25.15
2022-12-09T02:57:26.288Z,26.70
2022-12-09T02:59:53.883Z,24.13
2022-12-09T03:02:33.537Z,25.70
2022-12-09T03:05:18.467Z,25.73
2022-12-09T03:08:00.674Z,26.17
2022-12-09T03:10:39.326Z,26.08
2022-12-09T03:13:14.135Z,25.33
2022-12-09T03:15:50.009Z,26.50
2022-12-09T03:18:20.298Z,26.48
2022-12-09T03:20:49.248Z,25.60
2022-12-09T03:23:19.446Z,25.77
2022-12-09T03:25:52.317Z,26.52
2022-12-09T03:28:26.795Z,25.38
2022-12-09T03:30:55.054Z,25.40
2022-12-09T03:33:23.511Z,26.60
2022-12-09T03:35:58.246Z,25.30
2022-12-09T03:38:31.064Z,25.45
2022-12-09T03:41:30.721Z,25.35
2022-12-09T03:44:35.870Z,24.50
2022-12-09T03:47:07.101Z,22.17
2022-12-09T03:49:35.521Z,22.10
2022-12-09T03:52:11.309Z,22.45
2022-12-09T03:54:46.117Z,20.50
2022-12-09T03:57:19.076Z,18.90
2022-12-09T03:59:58.224Z,16.85
2022-12-09T04:02:25.692Z,17.75
2022-12-09T04:04:52.726Z,15.75
2022-12-09T04:07:20.031Z,15.57
2022-12-09T04:09:47.270Z,16.90
2022-12-09T04:12:14.088Z,16.60
2022-12-09T04:14:40.944Z,16.88
2022-12-09T04:17:07.817Z,16.83
2022-12-09T04:19:35.262Z,21.63
2022-12-09T04:22:03.062Z,24.15
2022-12-09T04:24:30.479Z,24.25
2022-12-09T04:26:57.413Z,25.33
2022-12-09T04:29:24.404Z,26.33
2022-12-09T04:31:51.266Z,24.65
2022-12-09T04:34:18.122Z,26.48
2022-12-09T04:36:45.021Z,25.23
2022-12-09T04:39:11.945Z,25.92
2022-12-09T04:41:38.948Z,23.60
2022-12-09T04:44:06.536Z,23.45
2022-12-09T04:46:34.117Z,21.98
2022-12-09T04:49:01.229Z,22.48
2022-12-09T04:51:29.614Z,21.45
2022-12-09T04:53:59.242Z,21.45
2022-12-09T04:56:26.615Z,17.80
2022-12-09T04:58:53.662Z,21.10
2022-12-09T05:01:29.896Z,19.75
2022-12-09T05:03:57.950Z,20.05
2022-12-09T05:06:25.854Z,19.40
2022-12-09T05:08:53.405Z,19.60
2022-12-09T05:11:21.695Z,18.83
2022-12-09T05:13:48.604Z,18.33
2022-12-09T05:16:18.235Z,19.67
2022-12-09T05:18:46.596Z,18.80
2022-12-09T05:21:16.802Z,19.33
2022-12-09T05:23:44.451Z,21.45
2022-12-09T05:26:15.209Z,19.83
2022-12-09T05:28:42.932Z,22.13
2022-12-09T05:31:18.347Z,21.95
2022-12-09T05:33:46.239Z,21.90
2022-12-09T05:36:15.250Z,24.17
2022-12-09T05:38:42.365Z,24.75
2022-12-09T05:41:09.335Z,23.95
2022-12-09T05:43:37.267Z,24.88
2022-12-09T05:46:05.699Z,24.05
2022-12-09T05:48:33.465Z,26.38
2022-12-09T05:51:07.985Z,25.50
2022-12-09T05:53:35.317Z,25.88
2022-12-09T05:56:03.089Z,26.15
2022-12-09T05:58:30.234Z,25.73
2022-12-09T06:01:04.248Z,25.77
2022-12-09T06:03:31.427Z,25.98
2022-12-09T06:06:08.480Z,26.35
2022-12-09T06:08:36.282Z,25.98
2022-12-09T06:11:03.485Z,28.15
2022-12-09T06:13:30.952Z,27.35
2022-12-09T06:16:04.405Z,27.23
2022-12-09T06:18:31.574Z,27.02
2022-12-09T06:20:59.079Z,28.95
2022-12-09T06:23:26.372Z,28.23
2022-12-09T06:25:53.109Z,27.60
2022-12-09T06:28:20.296Z,29.40
2022-12-09T06:30:47.300Z,29.63
2022-12-09T06:33:37.360Z,29.67
2022-12-09T06:36:05.414Z,31.35
2022-12-09T06:38:32.937Z,30.42
2022-12-09T06:41:00.025Z,31.52
2022-12-09T06:43:27.072Z,31.17
2022-12-09T06:45:54.192Z,30.70
2022-12-09T06:48:20.990Z,32.10
2022-12-09T06:50:50.381Z,31.05
2022-12-09T06:53:17.202Z,31.17
2022-12-09T06:55:44.902Z,32.80
2022-12-09T06:58:12.271Z,32.20
2022-12-09T07:00:40.519Z,32.95
2022-12-09T07:03:07.649Z,32.05
2022-12-09T07:05:35.002Z,32.53
2022-12-09T07:08:02.010Z,30.67
2022-12-09T07:10:29.176Z,32.90
2022-12-09T07:12:56.119Z,32.53
2022-12-09T07:15:23.527Z,32.35
2022-12-09T07:17:53.467Z,31.20
2022-12-09T07:20:20.875Z,32.33
2022-12-09T07:22:47.839Z,32.40
2022-12-09T07:25:15.169Z,32.70
2022-12-09T07:27:42.384Z,32.10
2022-12-09T07:30:09.687Z,31.35
2022-12-09T07:32:36.703Z,31.13
2022-12-09T07:35:04.071Z,31.70
2022-12-09T07:37:31.110Z,32.08
2022-12-09T07:39:57.844Z,34.08
2022-12-09T07:42:24.618Z,33.20
2022-12-09T07:44:54.147Z,32.80
2022-12-09T07:47:21.371Z,32.75
2022-12-09T07:49:48.473Z,33.47
2022-12-09T07:52:16.953Z,34.35
2022-12-09T07:54:44.051Z,33.30
2022-12-09T07:57:11.323Z,33.13
2022-12-09T07:59:38.536Z,33.88
2022-12-09T08:02:06.713Z,33.28
2022-12-09T08:04:35.305Z,34.70
2022-12-09T08:07:02.691Z,34.55
2022-12-09T08:09:33.053Z,34.60
2022-12-09T08:12:00.267Z,32.75
2022-12-09T08:14:27.726Z,33.05
2022-12-09T08:16:54.836Z,31.92
2022-12-09T08:19:22.025Z,32.92
2022-12-09T08:21:54.321Z,32.10
2022-12-09T08:24:21.999Z,33.22
2022-12-09T08:26:51.375Z,34.13
2022-12-09T08:29:18.417Z,33.13
2022-12-09T08:31:46.536Z,32.75
2022-12-09T08:34:15.345Z,31.58
2022-12-09T08:36:45.824Z,31.92
2022-12-09T08:39:14.015Z,30.08
2022-12-09T08:41:42.621Z,33.80
2022-12-09T08:44:12.912Z,29.60
2022-12-09T08:46:41.839Z,31.25
2022-12-09T08:49:09.951Z,31.73
2022-12-09T08:51:37.483Z,30.90
2022-12-09T08:54:06.055Z,30.70
2022-12-09T08:56:34.440Z,28.35
2022-12-09T08:59:02.101Z,29.17
2022-12-09T09:01:34.330Z,30.13
2022-12-09T09:04:03.996Z,30.38
2022-12-09T09:06:31.346Z,30.63
2022-12-09T09:09:02.009Z,30.73
2022-12-09T09:11:29.802Z,31.05
2022-12-09T09:13:57.766Z,29.33
2022-12-09T09:16:28.299Z,29.50
2022-12-09T09:19:01.296Z,29.23
2022-12-09T09:21:28.503Z,29.98
2022-12-09T09:23:55.591Z,29.42
2022-12-09T09:26:26.185Z,29.88
2022-12-09T09:28:53.811Z,29.55
2022-12-09T09:31:23.234Z,28.70
2022-12-09T09:33:50.964Z,29.10
2022-12-09T09:36:21.010Z,28.55
2022-12-09T09:38:49.286Z,29.73
2022-12-09T09:41:25.641Z,28.15
2022-12-09T09:43:54.533Z,30.67
2022-12-09T09:46:43.245Z,28.63
2022-12-09T09:49:21.280Z,26.58
2022-12-09T09:51:48.630Z,25.80
2022-12-09T09:54:16.703Z,23.48
2022-12-09T09:56:47.934Z,23.52
2022-12-09T09:59:27.140Z,22.77
2022-12-09T10:02:12.680Z,21.85
2022-12-09T10:05:09.197Z,20.85
2022-12-09T10:07:51.694Z,20.77
2022-12-09T10:10:51.652Z,20.90
2022-12-09T10:13:30.800Z,21.63
2022-12-09T10:16:17.884Z,23.38
2022-12-09T10:18:54.289Z,22.83
2022-12-09T10:21:22.489Z,22.77
2022-12-09T10:23:50.884Z,22.05
2022-12-09T10:26:28.168Z,22.38
2022-12-09T10:29:05.197Z,22.65
2022-12-09T10:31:32.920Z,22.00
2022-12-09T10:34:01.130Z,22.27
2022-12-09T10:36:35.777Z,21.27
2022-12-09T10:39:05.322Z,21.88
2022-12-09T10:42:15.331Z,22.65
2022-12-09T10:44:43.708Z,22.77
2022-12-09T10:47:37.322Z,22.02
2022-12-09T10:50:06.321Z,22.77
2022-12-09T10:52:44.465Z,23.15
2022-12-09T10:55:31.400Z,23.02
2022-12-09T10:58:14.390Z,24.20
2022-12-09T11:00:41.315Z,25.02
2022-12-09T11:03:27.041Z,23.27
2022-12-09T11:06:00.144Z,24.27
2022-12-09T11:10:55.306Z,23.23
2022-12-09T11:13:28.959Z,24.38
2022-12-09T11:16:01.617Z,23.13
2022-12-09T11:18:38.087Z,26.00
2022-12-09T11:21:07.978Z,24.60
2022-12-09T11:23:36.018Z,26.05
2022-12-09T11:26:06.893Z,24.30
2022-12-09T11:28:36.878Z,24.67
2022-12-09T11:31:32.635Z,25.90
2022-12-09T11:34:04.335Z,25.70
2022-12-09T11:36:42.210Z,25.27
2022-12-09T11:39:33.927Z,27.35
2022-12-09T11:42:17.128Z,25.02
2022-12-09T11:45:17.558Z,26.38
2022-12-09T11:50:36.496Z,26.95
2022-12-09T11:53:19.797Z,26.75
2022-12-09T11:56:05.540Z,25.85
2022-12-09T11:59:09.282Z,26.05
2022-12-09T12:01:52.356Z,26.00
2022-12-09T12:04:50.344Z,24.70
2022-12-09T12:07:26.088Z,26.70
2022-12-09T12:09:58.252Z,24.95
2022-12-09T12:12:38.843Z,24.17
2022-12-09T12:15:22.090Z,24.55
2022-12-09T12:17:54.847Z,23.45
2022-12-09T12:20:28.436Z,23.65
2022-12-09T12:23:19.110Z,23.15
2022-12-09T12:26:06.485Z,24.23
2022-12-09T12:28:50.483Z,23.95
2022-12-09T12:31:41.151Z,22.52
2022-12-09T12:34:39.049Z,21.98
2022-12-09T12:37:36.894Z,22.60
2022-12-09T12:40:27.153Z,23.60
2022-12-09T12:43:35.440Z,23.20
2022-12-09T12:46:19.893Z,24.00
2022-12-09T12:49:14.412Z,24.27
2022-12-09T12:52:03.158Z,22.88
2022-12-09T12:54:55.747Z,21.38
2022-12-09T12:57:37.484Z,23.90
2022-12-09T13:00:17.844Z,23.70
2022-12-09T13:03:17.128Z,23.58
2022-12-09T13:05:47.884Z,24.00
2022-12-09T13:08:21.840Z,22.50
2022-12-09T13:10:53.082Z,23.02
2022-12-09T13:13:28.007Z,25.42
2022-12-09T13:16:01.679Z,23.55
2022-12-09T13:18:36.721Z,24.80
2022-12-09T13:21:05.571Z,20.65
2022-12-09T13:23:55.487Z,21.13
2022-12-09T13:26:57.688Z,19.08
2022-12-09T13:29:33.460Z,20.75
2022-12-09T13:32:12.497Z,20.67
2022-12-09T13:35:12.004Z,19.83
2022-12-09T13:37:44.600Z,18.63
2022-12-09T13:40:34.871Z,17.70
2022-12-09T13:43:07.305Z,16.67
2022-12-09T13:45:46.087Z,18.73
2022-12-09T13:48:17.043Z,17.83
2022-12-09T13:50:51.623Z,18.55
2022-12-09T13:53:21.158Z,15.90
2022-12-09T13:56:05.308Z,16.85
2022-12-09T13:58:37.932Z,15.40
2022-12-09T14:01:16.800Z,16.40
2022-12-09T14:04:06.288Z,17.35
2022-12-09T14:06:56.156Z,16.50
2022-12-09T14:09:22.777Z,16.38
2022-12-09T14:11:54.037Z,16.13
2022-12-09T14:14:25.692Z,16.98
2022-12-09T14:17:13.225Z,16.70
2022-12-09T14:19:52.148Z,16.58
2022-12-09T14:22:19.709Z,15.52
2022-12-09T14:24:50.124Z,16.88
2022-12-09T14:27:33.350Z,14.30
2022-12-09T14:30:21.162Z,17.38
2022-12-09T14:32:50.847Z,15.65
2022-12-09T14:35:52.207Z,15.70
2022-12-09T14:38:31.128Z,14.93
2022-12-09T14:41:21.907Z,16.00
2022-12-09T14:44:26.300Z,17.92
2022-12-09T14:47:11.969Z,15.23
2022-12-09T14:49:48.523Z,15.45
2022-12-09T14:52:25.099Z,17.33
2022-12-09T14:54:53.988Z,18.10
2022-12-09T14:57:22.827Z,18.17
2022-12-09T14:59:55.209Z,18.80
2022-12-09T15:02:31.794Z,17.57
2022-12-09T15:05:03.122Z,17.35
2022-12-09T15:07:32.730Z,16.45
2022-12-09T15:10:33.952Z,16.30
2022-12-09T15:13:01.601Z,16.90
2022-12-09T15:15:38.331Z,16.92
2022-12-09T15:18:17.632Z,16.08
2022-12-09T15:20:51.051Z,17.08
2022-12-09T15:26:19.557Z,17.33
2022-12-09T15:28:49.070Z,19.30
2022-12-09T15:31:27.170Z,19.52
2022-12-09T15:33:57.453Z,19.02
2022-12-09T15:36:39.455Z,19.20
2022-12-09T15:39:19.107Z,17.92
2022-12-09T15:42:06.440Z,23.30
2022-12-09T15:45:01.240Z,18.67
2022-12-09T15:48:03.160Z,17.75
2022-12-09T15:50:54.800Z,16.77
2022-12-09T15:53:31.501Z,16.75
2022-12-09T15:56:03.823Z,17.92
2022-12-09T15:58:39.940Z,17.02
2022-12-09T16:01:06.890Z,17.08
2022-12-09T16:03:35.582Z,17.52
2022-12-09T16:06:06.851Z,17.80
2022-12-09T16:08:40.318Z,17.70
2022-12-09T16:11:07.275Z,19.30
2022-12-09T16:13:34.483Z,18.38
2022-12-09T16:16:22.094Z,18.05
2022-12-09T16:18:50.427Z,17.80
2022-12-09T16:21:27.795Z,17.58
2022-12-09T16:23:57.246Z,18.00
2022-12-09T16:26:44.096Z,18.52
2022-12-09T16:29:31.419Z,18.25
2022-12-09T16:32:25.925Z,18.73
2022-12-09T16:34:58.875Z,17.95
2022-12-09T16:37:40.384Z,18.10
2022-12-09T16:40:22.449Z,18.90
2022-12-09T16:42:50.790Z,18.75
2022-12-09T16:45:36.939Z,17.73
2022-12-09T16:48:04.986Z,18.65
2022-12-09T16:50:35.686Z,19.35
2022-12-09T16:53:15.615Z,18.65
2022-12-09T16:55:54.805Z,18.10
2022-12-09T16:58:22.095Z,18.52
2022-12-09T17:00:49.689Z,18.10
2022-12-09T17:03:33.195Z,18.88
2022-12-09T17:06:00.080Z,19.42
2022-12-09T17:08:26.915Z,18.70
2022-12-09T17:10:53.770Z,20.10
2022-12-09T17:13:20.526Z,19.42
2022-12-09T17:15:47.259Z,18.77
2022-12-09T17:18:14.112Z,17.52
2022-12-09T17:20:40.854Z,20.08
2022-12-09T17:23:07.614Z,19.05
2022-12-09T17:25:34.468Z,18.13
2022-12-09T17:28:03.487Z,21.10
2022-12-09T17:30:30.680Z,20.95
2022-12-09T17:32:59.684Z,20.20
2022-12-09T17:35:27.210Z,21.60
2022-12-09T17:37:53.930Z,20.77
2022-12-09T17:40:20.606Z,19.63
2022-12-09T17:42:47.281Z,19.95
2022-12-09T17:45:14.004Z,21.15
2022-12-09T17:47:40.853Z,20.17
2022-12-09T17:50:08.275Z,20.77
2022-12-09T17:52:35.576Z,23.08
2022-12-09T17:55:02.297Z,20.20
2022-12-09T17:57:29.351Z,20.08
2022-12-09T17:59:56.199Z,21.90
2022-12-09T18:02:23.056Z,21.45
2022-12-09T18:04:49.881Z,19.65
2022-12-09T18:07:18.108Z,21.52
2022-12-09T18:09:46.600Z,20.98
2022-12-09T18:12:16.614Z,22.42
2022-12-09T18:14:43.334Z,21.75
2022-12-09T18:17:10.099Z,21.95
2022-12-09T18:19:37.046Z,23.60
2022-12-09T18:22:04.280Z,22.80
2022-12-09T18:24:31.040Z,22.98
2022-12-09T18:26:58.311Z,23.02
2022-12-09T18:29:25.490Z,21.27
2022-12-09T18:31:56.991Z,21.95
2022-12-09T18:34:25.252Z,22.52
2022-12-09T18:36:52.469Z,22.50
2022-12-09T18:39:19.871Z,19.95
2022-12-09T18:41:47.182Z,18.60
2022-12-09T18:44:16.007Z,20.73
2022-12-09T18:46:49.043Z,18.90
2022-12-09T18:49:21.793Z,19.17
2022-12-09T18:51:50.143Z,18.92
2022-12-09T18:54:27.492Z,19.00
2022-12-09T18:56:55.403Z,17.90
2022-12-09T18:59:25.059Z,18.48
2022-12-09T19:01:52.156Z,18.35
2022-12-09T19:04:24.801Z,18.25
2022-12-09T19:06:54.021Z,19.17
2022-12-09T19:09:23.456Z,17.38
2022-12-09T19:11:51.720Z,21.15
2022-12-09T19:14:22.199Z,21.63
2022-12-09T19:16:49.860Z,21.05
2022-12-09T19:19:19.666Z,21.08
2022-12-09T19:21:47.085Z,21.48
2022-12-09T19:24:27.103Z,21.08
2022-12-09T19:26:56.548Z,21.42
2022-12-09T19:29:28.089Z,18.42
2022-12-09T19:31:57.333Z,19.88
2022-12-09T19:34:27.252Z,20.17
2022-12-09T19:36:56.228Z,20.45
2022-12-09T19:39:25.348Z,20.20
2022-12-09T19:41:52.892Z,19.30
2022-12-09T19:44:37.397Z,21.27
2022-12-09T19:47:07.341Z,18.83
2022-12-09T19:49:34.702Z,18.45
2022-12-09T19:52:01.456Z,18.77
2022-12-09T19:54:29.798Z,19.92
2022-12-09T19:56:57.133Z,25.27
2022-12-09T19:59:23.791Z,29.13
2022-12-09T20:01:50.706Z,28.02
2022-12-09T20:04:47.417Z,28.23
2022-12-09T20:07:08.236Z,27.95
2022-12-09T20:09:36.226Z,26.73
2022-12-09T20:12:02.950Z,25.52
2022-12-09T20:14:29.722Z,22.27
2022-12-09T20:16:56.410Z,19.88
2022-12-09T20:19:23.860Z,17.67
2022-12-09T20:21:50.669Z,16.50
2022-12-09T20:24:17.447Z,18.88
2022-12-09T20:26:44.944Z,16.05
2022-12-09T20:29:11.962Z,17.05
2022-12-09T20:31:39.792Z,13.98
2022-12-09T20:34:11.332Z,14.82
2022-12-09T20:36:39.760Z,14.02
2022-12-09T20:39:12.610Z,14.60
2022-12-09T20:41:39.839Z,12.95
2022-12-09T20:44:06.667Z,13.00
2022-12-09T20:46:33.878Z,15.15
2022-12-09T20:49:01.241Z,12.95
2022-12-09T20:51:36.862Z,12.82
2022-12-09T20:54:05.313Z,13.40
2022-12-09T20:56:32.492Z,12.68
2022-12-09T20:58:59.949Z,13.02
2022-12-09T21:01:29.991Z,10.65
2022-12-09T21:03:58.544Z,11.38
2022-12-09T21:06:29.414Z,11.95
2022-12-09T21:08:57.481Z,10.13
2022-12-09T21:11:25.683Z,11.63
2022-12-09T21:13:57.863Z,11.30
2022-12-09T21:16:27.416Z,12.25
2022-12-09T21:18:57.574Z,11.18
2022-12-09T21:21:26.160Z,10.43
2022-12-09T21:23:55.365Z,10.30
2022-12-09T21:26:24.265Z,11.18
2022-12-09T21:28:52.055Z,9.45
2022-12-09T21:31:24.585Z,10.85
2022-12-09T21:33:53.099Z,10.57
2022-12-09T21:36:23.472Z,10.38
2022-12-09T21:38:50.933Z,10.98
2022-12-09T21:41:20.584Z,10.80
2022-12-09T21:43:47.590Z,9.02
2022-12-09T21:46:20.885Z,9.07
2022-12-09T21:48:52.415Z,9.13
2022-12-09T21:51:21.007Z,10.55
2022-12-09T21:53:48.828Z,9.27
2022-12-09T21:56:20.648Z,9.35
2022-12-09T21:58:49.520Z,8.35
2022-12-09T22:01:28.016Z,9.50
2022-12-09T22:03:55.910Z,8.50
2022-12-09T22:06:23.000Z,8.50
2022-12-09T22:08:49.797Z,9.73
2022-12-09T22:11:23.341Z,9.90
2022-12-09T22:13:50.427Z,9.18
2022-12-09T22:16:23.086Z,9.32
2022-12-09T22:18:50.530Z,9.73
2022-12-09T22:21:28.115Z,9.75
2022-12-09T22:23:57.421Z,9.80
2022-12-09T22:26:24.980Z,11.02
2022-12-09T22:28:52.824Z,11.63
2022-12-09T22:31:25.900Z,11.70
2022-12-09T22:33:54.521Z,10.93
2022-12-09T22:36:21.676Z,12.02
2022-12-09T22:38:49.312Z,10.63
2022-12-09T22:41:22.532Z,12.20
2022-12-09T22:43:50.530Z,10.75
2022-12-09T22:46:20.138Z,10.10
2022-12-09T22:48:47.195Z,10.88
2022-12-09T22:51:16.710Z,11.10
2022-12-09T22:53:43.948Z,11.90
2022-12-09T22:56:12.395Z,12.05
2022-12-09T22:58:40.129Z,11.27
2022-12-09T23:01:15.415Z,12.43
2022-12-09T23:03:42.755Z,12.48
2022-12-09T23:06:10.135Z,12.43
2022-12-09T23:08:38.830Z,12.32
2022-12-09T23:11:08.177Z,12.45
2022-12-09T23:13:41.252Z,13.68
2022-12-09T23:16:11.795Z,13.10
2022-12-09T23:18:39.515Z,13.02
2022-12-09T23:21:08.657Z,14.90
2022-12-09T23:23:35.489Z,14.50
2022-12-09T23:26:07.526Z,16.65
2022-12-09T23:28:38.874Z,16.20
2022-12-09T23:31:10.117Z,16.75
2022-12-09T23:33:38.809Z,16.92
2022-12-09T23:36:15.319Z,17.05
2022-12-09T23:38:42.648Z,15.98
2022-12-09T23:41:11.639Z,16.02
2022-12-09T23:43:39.499Z,16.23
2022-12-09T23:46:15.448Z,16.30
2022-12-09T23:48:43.968Z,16.25
2022-12-09T23:51:22.071Z,16.85
2022-12-09T23:53:51.231Z,16.70
2022-12-09T23:56:20.327Z,16.38
2022-12-09T23:58:47.708Z,17.20
